sensor_id;sensor_type;location;lat;lon;timestamp;pressure;altitude;pressure_sealevel;temperature;humidity
76095;BME280;64821;13.710;100.604;2024-02-26T00:00:26;101284.16;;;43.60;31.23
76095;BME280;64821;13.710;100.604;2024-02-26T00:01:32;101299.72;;;43.61;31.68
76095;BME280;64821;13.710;100.604;2024-02-26T00:02:38;101292.16;;;43.62;32.07
76095;BME280;64821;13.710;100.604;2024-02-26T00:03:42;101286.88;;;43.53;31.25
76095;BME280;64821;13.710;100.604;2024-02-26T00:04:46;101299.28;;;43.56;31.51
76095;BME280;64821;13.710;100.604;2024-02-26T00:05:51;101275.28;;;43.47;31.51
76095;BME280;64821;13.710;100.604;2024-02-26T00:06:55;101296.59;;;43.66;31.01
76095;BME280;64821;13.710;100.604;2024-02-26T00:07:59;101299.78;;;43.68;30.89
76095;BME280;64821;13.710;100.604;2024-02-26T00:09:07;101300.97;;;43.71;31.06
76095;BME280;64821;13.710;100.604;2024-02-26T00:10:11;101307.75;;;43.70;31.05
76095;BME280;64821;13.710;100.604;2024-02-26T00:11:15;101306.56;;;43.67;30.97
76095;BME280;64821;13.710;100.604;2024-02-26T00:12:19;101290.09;;;43.55;31.26
76095;BME280;64821;13.710;100.604;2024-02-26T00:13:24;101307.75;;;43.66;31.19
76095;BME280;64821;13.710;100.604;2024-02-26T00:14:28;101302.59;;;43.72;30.90
76095;BME280;64821;13.710;100.604;2024-02-26T00:15:32;101311.75;;;43.72;31.25
76095;BME280;64821;13.710;100.604;2024-02-26T00:16:36;101316.97;;;43.74;31.17
76095;BME280;64821;13.710;100.604;2024-02-26T00:17:41;101288.13;;;43.56;31.45
76095;BME280;64821;13.710;100.604;2024-02-26T00:18:46;101313.78;;;43.75;30.99
76095;BME280;64821;13.710;100.604;2024-02-26T00:19:52;101314.59;;;43.76;31.11
76095;BME280;64821;13.710;100.604;2024-02-26T00:20:56;101326.19;;;43.81;31.23
76095;BME280;64821;13.710;100.604;2024-02-26T00:22:01;101326.97;;;43.82;30.94
76095;BME280;64821;13.710;100.604;2024-02-26T00:23:05;101320.25;;;43.86;31.07
76095;BME280;64821;13.710;100.604;2024-02-26T00:24:09;101324.66;;;43.87;31.07
76095;BME280;64821;13.710;100.604;2024-02-26T00:25:13;101335.00;;;43.87;31.13
76095;BME280;64821;13.710;100.604;2024-02-26T00:26:17;101325.41;;;43.88;31.20
76095;BME280;64821;13.710;100.604;2024-02-26T00:27:21;101327.03;;;43.85;31.38
76095;BME280;64821;13.710;100.604;2024-02-26T00:28:25;101329.81;;;43.85;31.14
76095;BME280;64821;13.710;100.604;2024-02-26T00:29:29;101298.56;;;43.69;31.26
76095;BME280;64821;13.710;100.604;2024-02-26T00:30:34;101321.06;;;43.90;30.93
76095;BME280;64821;13.710;100.604;2024-02-26T00:31:38;101325.88;;;43.94;30.82
76095;BME280;64821;13.710;100.604;2024-02-26T00:32:43;101325.88;;;43.94;31.04
76095;BME280;64821;13.710;100.604;2024-02-26T00:33:48;101331.91;;;43.96;30.98
76095;BME280;64821;13.710;100.604;2024-02-26T00:34:52;101332.72;;;44.00;30.93
76095;BME280;64821;13.710;100.604;2024-02-26T00:35:56;101334.34;;;44.04;31.15
76095;BME280;64821;13.710;100.604;2024-02-26T00:37:01;101333.97;;;44.06;30.78
76095;BME280;64821;13.710;100.604;2024-02-26T00:38:05;101308.72;;;43.91;30.96
76095;BME280;64821;13.710;100.604;2024-02-26T00:39:10;101334.78;;;44.06;31.06
76095;BME280;64821;13.710;100.604;2024-02-26T00:40:15;101336.75;;;44.06;31.10
76095;BME280;64821;13.710;100.604;2024-02-26T00:41:19;101330.34;;;44.02;30.70
76095;BME280;64821;13.710;100.604;2024-02-26T00:42:23;101341.16;;;44.10;31.00
76095;BME280;64821;13.710;100.604;2024-02-26T00:43:28;101342.38;;;44.13;30.89
76095;BME280;64821;13.710;100.604;2024-02-26T00:44:32;101346.81;;;44.21;30.76
76095;BME280;64821;13.710;100.604;2024-02-26T00:45:36;101352.00;;;44.22;30.55
76095;BME280;64821;13.710;100.604;2024-02-26T00:46:40;101339.56;;;44.09;30.64
76095;BME280;64821;13.710;100.604;2024-02-26T00:47:46;101353.16;;;44.14;31.03
76095;BME280;64821;13.710;100.604;2024-02-26T00:48:50;101349.53;;;44.07;30.86
76095;BME280;64821;13.710;100.604;2024-02-26T00:49:54;101348.72;;;44.06;30.94
76095;BME280;64821;13.710;100.604;2024-02-26T00:50:59;101352.72;;;44.05;31.09
76095;BME280;64821;13.710;100.604;2024-02-26T00:52:03;101358.25;;;44.02;31.03
76095;BME280;64821;13.710;100.604;2024-02-26T00:53:07;101359.47;;;44.04;31.11
76095;BME280;64821;13.710;100.604;2024-02-26T00:54:11;101353.06;;;44.00;31.25
76095;BME280;64821;13.710;100.604;2024-02-26T00:55:16;101357.09;;;44.06;30.99
76095;BME280;64821;13.710;100.604;2024-02-26T00:56:20;101356.31;;;44.09;30.83
76095;BME280;64821;13.710;100.604;2024-02-26T00:57:24;101355.56;;;44.19;30.89
76095;BME280;64821;13.710;100.604;2024-02-26T00:58:28;101337.16;;;44.08;30.81
76095;BME280;64821;13.710;100.604;2024-02-26T00:59:32;101362.41;;;44.25;30.84
76095;BME280;64821;13.710;100.604;2024-02-26T01:00:36;101363.22;;;44.26;31.10
76095;BME280;64821;13.710;100.604;2024-02-26T01:01:41;101365.56;;;44.17;31.00
76095;BME280;64821;13.710;100.604;2024-02-26T01:02:46;101367.50;;;44.13;31.40
76095;BME280;64821;13.710;100.604;2024-02-26T01:03:51;101365.94;;;44.15;30.94
76095;BME280;64821;13.710;100.604;2024-02-26T01:04:55;101371.06;;;44.10;30.92
76095;BME280;64821;13.710;100.604;2024-02-26T01:05:59;101327.06;;;43.92;30.86
76095;BME280;64821;13.710;100.604;2024-02-26T01:07:03;101375.97;;;44.23;30.86
76095;BME280;64821;13.710;100.604;2024-02-26T01:08:08;101372.75;;;44.21;30.95
76095;BME280;64821;13.710;100.604;2024-02-26T01:09:12;101369.53;;;44.19;31.00
76095;BME280;64821;13.710;100.604;2024-02-26T01:10:16;101376.38;;;44.25;31.27
76095;BME280;64821;13.710;100.604;2024-02-26T01:11:20;101375.56;;;44.25;31.04
76095;BME280;64821;13.710;100.604;2024-02-26T01:12:25;101375.22;;;44.34;31.02
76095;BME280;64821;13.710;100.604;2024-02-26T01:13:29;101379.66;;;44.38;30.62
76095;BME280;64821;13.710;100.604;2024-02-26T01:14:33;101368.91;;;44.37;30.70
76095;BME280;64821;13.710;100.604;2024-02-26T01:15:38;101373.19;;;44.31;30.84
76095;BME280;64821;13.710;100.604;2024-02-26T01:16:42;101376.31;;;44.18;31.30
76095;BME280;64821;13.710;100.604;2024-02-26T01:17:47;101375.53;;;44.21;31.45
76095;BME280;64821;13.710;100.604;2024-02-26T01:18:52;101368.81;;;44.30;31.16
76095;BME280;64821;13.710;100.604;2024-02-26T01:19:57;101371.53;;;44.15;31.18
76095;BME280;64821;13.710;100.604;2024-02-26T01:21:01;101361.50;;;44.11;31.34
76095;BME280;64821;13.710;100.604;2024-02-26T01:22:13;101370.66;;;44.08;31.42
76095;BME280;64821;13.710;100.604;2024-02-26T01:23:17;101369.88;;;44.11;31.21
76095;BME280;64821;13.710;100.604;2024-02-26T01:24:23;101374.31;;;44.19;31.14
76095;BME280;64821;13.710;100.604;2024-02-26T01:25:28;101370.78;;;44.25;30.87
76095;BME280;64821;13.710;100.604;2024-02-26T01:26:32;101372.00;;;44.32;30.80
76095;BME280;64821;13.710;100.604;2024-02-26T01:27:36;101369.69;;;44.41;30.94
76095;BME280;64821;13.710;100.604;2024-02-26T01:28:40;101367.75;;;44.48;30.77
76095;BME280;64821;13.710;100.604;2024-02-26T01:29:44;101370.16;;;44.53;30.70
76095;BME280;64821;13.710;100.604;2024-02-26T01:30:49;101356.19;;;44.57;30.75
76095;BME280;64821;13.710;100.604;2024-02-26T01:31:53;101371.41;;;44.63;30.75
76095;BME280;64821;13.710;100.604;2024-02-26T01:32:58;101382.22;;;44.65;30.86
76095;BME280;64821;13.710;100.604;2024-02-26T01:34:03;101381.88;;;44.73;30.33
76095;BME280;64821;13.710;100.604;2024-02-26T01:35:11;101383.91;;;44.83;30.17
76095;BME280;64821;13.710;100.604;2024-02-26T01:36:15;101383.91;;;44.90;30.35
76095;BME280;64821;13.710;100.604;2024-02-26T01:37:19;101375.56;;;44.94;30.05
76095;BME280;64821;13.710;100.604;2024-02-26T01:38:23;101382.75;;;44.95;30.08
76095;BME280;64821;13.710;100.604;2024-02-26T01:39:28;101382.34;;;44.96;30.24
76095;BME280;64821;13.710;100.604;2024-02-26T01:40:32;101377.50;;;44.86;30.59
76095;BME280;64821;13.710;100.604;2024-02-26T01:41:36;101384.72;;;44.91;30.31
76095;BME280;64821;13.710;100.604;2024-02-26T01:42:40;101382.72;;;44.91;30.32
76095;BME280;64821;13.710;100.604;2024-02-26T01:43:44;101387.53;;;44.98;30.07
76095;BME280;64821;13.710;100.604;2024-02-26T01:44:48;101383.16;;;45.01;30.15
76095;BME280;64821;13.710;100.604;2024-02-26T01:45:53;101379.97;;;45.02;30.35
76095;BME280;64821;13.710;100.604;2024-02-26T01:46:57;101387.13;;;44.92;30.13
76095;BME280;64821;13.710;100.604;2024-02-26T01:48:03;101384.34;;;44.99;30.72
76095;BME280;64821;13.710;100.604;2024-02-26T01:49:08;101384.34;;;44.92;30.51
76095;BME280;64821;13.710;100.604;2024-02-26T01:50:13;101380.75;;;44.95;30.15
76095;BME280;64821;13.710;100.604;2024-02-26T01:51:18;101379.97;;;45.02;30.22
76095;BME280;64821;13.710;100.604;2024-02-26T01:52:22;101385.19;;;45.11;30.10
76095;BME280;64821;13.710;100.604;2024-02-26T01:53:27;101382.75;;;45.02;29.91
76095;BME280;64821;13.710;100.604;2024-02-26T01:54:31;101394.34;;;45.01;30.08
76095;BME280;64821;13.710;100.604;2024-02-26T01:55:37;101389.97;;;45.10;30.19
76095;BME280;64821;13.710;100.604;2024-02-26T01:56:42;101394.81;;;45.20;30.10
76095;BME280;64821;13.710;100.604;2024-02-26T01:57:47;101385.25;;;45.28;29.95
76095;BME280;64821;13.710;100.604;2024-02-26T01:58:52;101385.66;;;45.30;29.78
76095;BME280;64821;13.710;100.604;2024-02-26T01:59:57;101388.88;;;45.32;29.87
76095;BME280;64821;13.710;100.604;2024-02-26T02:01:01;101390.84;;;45.35;29.58
76095;BME280;64821;13.710;100.604;2024-02-26T02:02:08;101377.63;;;45.25;29.83
76095;BME280;64821;13.710;100.604;2024-02-26T02:03:16;101380.84;;;45.24;30.25
76095;BME280;64821;13.710;100.604;2024-02-26T02:04:20;101384.84;;;45.30;29.69
76095;BME280;64821;13.710;100.604;2024-02-26T02:05:25;101382.06;;;45.23;29.96
76095;BME280;64821;13.710;100.604;2024-02-26T02:06:29;101386.84;;;45.22;30.27
76095;BME280;64821;13.710;100.604;2024-02-26T02:07:34;101390.47;;;45.33;29.87
76095;BME280;64821;13.710;100.604;2024-02-26T02:08:40;101389.66;;;45.37;30.08
76095;BME280;64821;13.710;100.604;2024-02-26T02:09:44;101388.47;;;45.41;30.14
76095;BME280;64821;13.710;100.604;2024-02-26T02:10:49;101385.66;;;45.48;29.49
76095;BME280;64821;13.710;100.604;2024-02-26T02:11:53;101384.88;;;45.48;29.95
76095;BME280;64821;13.710;100.604;2024-02-26T02:12:57;101389.31;;;45.52;29.53
76095;BME280;64821;13.710;100.604;2024-02-26T02:14:01;101394.91;;;45.56;29.90
76095;BME280;64821;13.710;100.604;2024-02-26T02:15:06;101394.50;;;45.57;29.79
76095;BME280;64821;13.710;100.604;2024-02-26T02:16:11;101389.72;;;45.61;29.33
76095;BME280;64821;13.710;100.604;2024-02-26T02:17:15;101399.31;;;45.67;29.83
76095;BME280;64821;13.710;100.604;2024-02-26T02:18:21;101399.72;;;45.73;30.01
76095;BME280;64821;13.710;100.604;2024-02-26T02:19:25;101404.13;;;45.70;29.85
76095;BME280;64821;13.710;100.604;2024-02-26T02:20:34;101390.94;;;45.64;29.74
76095;BME280;64821;13.710;100.604;2024-02-26T02:21:38;101389.72;;;45.68;29.36
76095;BME280;64821;13.710;100.604;2024-02-26T02:22:42;101395.69;;;45.74;29.39
76095;BME280;64821;13.710;100.604;2024-02-26T02:23:46;101403.69;;;45.76;29.60
76095;BME280;64821;13.710;100.604;2024-02-26T02:24:52;101402.91;;;45.79;29.13
76095;BME280;64821;13.710;100.604;2024-02-26T02:25:57;101402.09;;;45.67;29.68
76095;BME280;64821;13.710;100.604;2024-02-26T02:27:02;101406.91;;;45.67;29.93
76095;BME280;64821;13.710;100.604;2024-02-26T02:28:06;101409.72;;;45.60;29.86
76095;BME280;64821;13.710;100.604;2024-02-26T02:29:11;101407.31;;;45.58;29.82
76095;BME280;64821;13.710;100.604;2024-02-26T02:30:15;101405.28;;;45.55;29.60
76095;BME280;64821;13.710;100.604;2024-02-26T02:31:19;101408.50;;;45.61;29.70
76095;BME280;64821;13.710;100.604;2024-02-26T02:32:25;101408.09;;;45.55;29.75
76095;BME280;64821;13.710;100.604;2024-02-26T02:33:29;101406.06;;;45.49;30.22
76095;BME280;64821;13.710;100.604;2024-02-26T02:34:33;101406.91;;;45.49;30.07
76095;BME280;64821;13.710;100.604;2024-02-26T02:35:40;101402.44;;;45.45;30.05
76095;BME280;64821;13.710;100.604;2024-02-26T02:36:52;101410.91;;;45.52;29.90
76095;BME280;64821;13.710;100.604;2024-02-26T02:37:57;101412.47;;;45.42;29.70
76095;BME280;64821;13.710;100.604;2024-02-26T02:39:01;101406.47;;;45.40;29.77
76095;BME280;64821;13.710;100.604;2024-02-26T02:40:07;101416.47;;;45.48;29.61
76095;BME280;64821;13.710;100.604;2024-02-26T02:41:11;101404.44;;;45.37;29.64
76095;BME280;64821;13.710;100.604;2024-02-26T02:42:15;101402.47;;;45.34;29.46
76095;BME280;64821;13.710;100.604;2024-02-26T02:43:19;101410.06;;;45.41;29.71
76095;BME280;64821;13.710;100.604;2024-02-26T02:44:24;101401.22;;;45.35;29.67
76095;BME280;64821;13.710;100.604;2024-02-26T02:45:28;101408.03;;;45.45;29.89
76095;BME280;64821;13.710;100.604;2024-02-26T02:46:32;101408.44;;;45.47;29.97
76095;BME280;64821;13.710;100.604;2024-02-26T02:47:37;101416.09;;;45.57;29.13
76095;BME280;64821;13.710;100.604;2024-02-26T02:48:42;101396.91;;;45.55;29.29
76095;BME280;64821;13.710;100.604;2024-02-26T02:49:46;101410.91;;;45.62;29.31
76095;BME280;64821;13.710;100.604;2024-02-26T02:50:53;101408.09;;;45.66;29.09
76095;BME280;64821;13.710;100.604;2024-02-26T02:51:57;101410.13;;;45.69;29.39
76095;BME280;64821;13.710;100.604;2024-02-26T02:53:01;101410.50;;;45.75;29.39
76095;BME280;64821;13.710;100.604;2024-02-26T02:54:05;101413.31;;;45.82;29.12
76095;BME280;64821;13.710;100.604;2024-02-26T02:55:09;101417.69;;;45.86;29.11
76095;BME280;64821;13.710;100.604;2024-02-26T02:56:13;101412.53;;;45.88;29.15
76095;BME280;64821;13.710;100.604;2024-02-26T02:57:17;101416.09;;;45.78;29.43
76095;BME280;64821;13.710;100.604;2024-02-26T02:58:25;101409.28;;;45.65;29.03
76095;BME280;64821;13.710;100.604;2024-02-26T02:59:29;101415.31;;;45.63;29.63
76095;BME280;64821;13.710;100.604;2024-02-26T03:00:33;101418.13;;;45.70;29.13
76095;BME280;64821;13.710;100.604;2024-02-26T03:01:37;101397.31;;;45.68;29.23
76095;BME280;64821;13.710;100.604;2024-02-26T03:02:41;101414.16;;;45.93;29.09
76095;BME280;64821;13.710;100.604;2024-02-26T03:03:45;101416.91;;;46.03;28.77
76095;BME280;64821;13.710;100.604;2024-02-26T03:04:49;101421.75;;;45.99;29.06
76095;BME280;64821;13.710;100.604;2024-02-26T03:05:56;101413.31;;;46.06;28.42
76095;BME280;64821;13.710;100.604;2024-02-26T03:07:00;101418.53;;;46.04;28.50
76095;BME280;64821;13.710;100.604;2024-02-26T03:08:05;101416.16;;;46.03;29.06
76095;BME280;64821;13.710;100.604;2024-02-26T03:09:09;101417.34;;;46.02;29.03
76095;BME280;64821;13.710;100.604;2024-02-26T03:10:13;101420.94;;;45.99;28.58
76095;BME280;64821;13.710;100.604;2024-02-26T03:11:17;101425.75;;;45.91;29.00
76095;BME280;64821;13.710;100.604;2024-02-26T03:12:22;101424.94;;;45.94;28.82
76095;BME280;64821;13.710;100.604;2024-02-26T03:13:26;101396.50;;;45.78;29.13
76095;BME280;64821;13.710;100.604;2024-02-26T03:14:30;101414.53;;;45.98;28.57
76095;BME280;64821;13.710;100.604;2024-02-26T03:15:34;101396.94;;;45.98;28.56
76095;BME280;64821;13.710;100.604;2024-02-26T03:16:38;101412.13;;;46.00;28.86
76095;BME280;64821;13.710;100.604;2024-02-26T03:17:42;101418.53;;;45.97;28.65
76095;BME280;64821;13.710;100.604;2024-02-26T03:18:46;101398.53;;;45.88;29.08
76095;BME280;64821;13.710;100.604;2024-02-26T03:19:51;101404.13;;;45.88;28.59
76095;BME280;64821;13.710;100.604;2024-02-26T03:20:57;101405.34;;;45.91;28.28
76095;BME280;64821;13.710;100.604;2024-02-26T03:22:02;101406.16;;;45.91;29.09
76095;BME280;64821;13.710;100.604;2024-02-26T03:23:06;101408.94;;;45.95;28.97
76095;BME280;64821;13.710;100.604;2024-02-26T03:24:10;101386.91;;;45.79;28.77
76095;BME280;64821;13.710;100.604;2024-02-26T03:25:14;101406.13;;;45.95;28.45
76095;BME280;64821;13.710;100.604;2024-02-26T03:26:18;101405.72;;;45.96;28.58
76095;BME280;64821;13.710;100.604;2024-02-26T03:27:22;101402.13;;;45.99;28.51
76095;BME280;64821;13.710;100.604;2024-02-26T03:28:27;101403.75;;;46.00;28.82
76095;BME280;64821;13.710;100.604;2024-02-26T03:29:31;101386.13;;;46.07;28.36
76095;BME280;64821;13.710;100.604;2024-02-26T03:30:35;101390.91;;;46.17;28.19
76095;BME280;64821;13.710;100.604;2024-02-26T03:31:39;101388.50;;;46.16;28.20
76095;BME280;64821;13.710;100.604;2024-02-26T03:32:43;101388.91;;;46.25;28.10
76095;BME280;64821;13.710;100.604;2024-02-26T03:33:47;101384.88;;;46.33;28.12
76095;BME280;64821;13.710;100.604;2024-02-26T03:34:52;101384.06;;;46.36;28.46
76095;BME280;64821;13.710;100.604;2024-02-26T03:35:58;101382.47;;;46.42;27.75
76095;BME280;64821;13.710;100.604;2024-02-26T03:37:03;101384.84;;;46.51;28.21
76095;BME280;64821;13.710;100.604;2024-02-26T03:38:07;101384.41;;;46.56;27.86
76095;BME280;64821;13.710;100.604;2024-02-26T03:39:11;101379.59;;;46.63;27.37
76095;BME280;64821;13.710;100.604;2024-02-26T03:40:16;101376.41;;;46.58;28.26
76095;BME280;64821;13.710;100.604;2024-02-26T03:41:20;101371.59;;;46.58;28.20
76095;BME280;64821;13.710;100.604;2024-02-26T03:42:24;101370.81;;;46.47;28.29
76095;BME280;64821;13.710;100.604;2024-02-26T03:43:28;101367.69;;;46.31;27.97
76095;BME280;64821;13.710;100.604;2024-02-26T03:44:32;101380.88;;;46.41;28.09
76095;BME280;64821;13.710;100.604;2024-02-26T03:45:36;101378.88;;;46.34;27.72
76095;BME280;64821;13.710;100.604;2024-02-26T03:46:40;101332.91;;;46.00;28.07
76095;BME280;64821;13.710;100.604;2024-02-26T03:47:44;101333.72;;;45.97;28.51
76095;BME280;64821;13.710;100.604;2024-02-26T03:48:49;101328.13;;;45.93;28.07
76095;BME280;64821;13.710;100.604;2024-02-26T03:49:53;101372.88;;;46.22;28.43
76095;BME280;64821;13.710;100.604;2024-02-26T03:50:59;101374.09;;;46.21;27.68
76095;BME280;64821;13.710;100.604;2024-02-26T03:52:03;101358.88;;;46.18;27.96
76095;BME280;64821;13.710;100.604;2024-02-26T03:53:07;101371.28;;;46.31;28.22
76095;BME280;64821;13.710;100.604;2024-02-26T03:54:16;101369.63;;;46.45;27.96
76095;BME280;64821;13.710;100.604;2024-02-26T03:55:20;101366.81;;;46.52;27.98
76095;BME280;64821;13.710;100.604;2024-02-26T03:56:25;101359.19;;;46.56;27.83
76095;BME280;64821;13.710;100.604;2024-02-26T03:57:29;101363.97;;;46.66;27.92
76095;BME280;64821;13.710;100.604;2024-02-26T03:58:33;101367.97;;;46.72;27.82
76095;BME280;64821;13.710;100.604;2024-02-26T03:59:37;101362.75;;;46.70;27.29
76095;BME280;64821;13.710;100.604;2024-02-26T04:00:46;101359.91;;;46.74;26.98
76095;BME280;64821;13.710;100.604;2024-02-26T04:01:51;101333.53;;;46.64;27.71
76095;BME280;64821;13.710;100.604;2024-02-26T04:02:55;101345.13;;;46.70;27.29
76095;BME280;64821;13.710;100.604;2024-02-26T04:03:59;101355.91;;;46.78;27.75
76095;BME280;64821;13.710;100.604;2024-02-26T04:05:04;101352.66;;;46.84;27.28
76095;BME280;64821;13.710;100.604;2024-02-26T04:06:11;101355.44;;;46.91;26.74
76095;BME280;64821;13.710;100.604;2024-02-26T04:07:16;101323.06;;;46.79;26.92
76095;BME280;64821;13.710;100.604;2024-02-26T04:08:20;101355.00;;;46.96;27.42
76095;BME280;64821;13.710;100.604;2024-02-26T04:09:24;101349.00;;;46.94;27.49
76095;BME280;64821;13.710;100.604;2024-02-26T04:10:28;101345.44;;;46.86;27.55
76095;BME280;64821;13.710;100.604;2024-02-26T04:11:32;101348.25;;;46.86;27.68
76095;BME280;64821;13.710;100.604;2024-02-26T04:12:38;101351.84;;;46.83;27.07
76095;BME280;64821;13.710;100.604;2024-02-26T04:13:43;101345.09;;;46.81;27.08
76095;BME280;64821;13.710;100.604;2024-02-26T04:14:47;101349.91;;;46.76;27.69
76095;BME280;64821;13.710;100.604;2024-02-26T04:15:51;101348.69;;;46.81;27.36
76095;BME280;64821;13.710;100.604;2024-02-26T04:16:55;101348.69;;;46.77;27.14
76095;BME280;64821;13.710;100.604;2024-02-26T04:17:59;101343.50;;;46.76;27.86
76095;BME280;64821;13.710;100.604;2024-02-26T04:19:04;101345.09;;;46.77;27.77
76095;BME280;64821;13.710;100.604;2024-02-26T04:20:12;101337.09;;;46.75;27.15
76095;BME280;64821;13.710;100.604;2024-02-26T04:21:18;101340.34;;;46.67;26.49
76095;BME280;64821;13.710;100.604;2024-02-26T04:22:22;101333.94;;;46.70;27.52
76095;BME280;64821;13.710;100.604;2024-02-26T04:23:26;101335.53;;;46.67;27.46
76095;BME280;64821;13.710;100.604;2024-02-26T04:24:30;101337.13;;;46.68;27.21
76095;BME280;64821;13.710;100.604;2024-02-26T04:25:35;101338.28;;;46.82;26.95
76095;BME280;64821;13.710;100.604;2024-02-26T04:26:39;101317.44;;;46.79;27.10
76095;BME280;64821;13.710;100.604;2024-02-26T04:27:43;101331.81;;;46.85;27.11
76095;BME280;64821;13.710;100.604;2024-02-26T04:28:47;101347.41;;;46.93;27.00
76095;BME280;64821;13.710;100.604;2024-02-26T04:29:51;101314.25;;;46.81;27.19
76095;BME280;64821;13.710;100.604;2024-02-26T04:30:56;101336.16;;;47.03;26.74
76095;BME280;64821;13.710;100.604;2024-02-26T04:32:00;101331.66;;;47.13;26.77
76095;BME280;64821;13.710;100.604;2024-02-26T04:33:05;101328.03;;;47.20;26.63
76095;BME280;64821;13.710;100.604;2024-02-26T04:34:09;101305.59;;;47.16;26.59
76095;BME280;64821;13.710;100.604;2024-02-26T04:35:16;101317.16;;;47.25;26.89
76095;BME280;64821;13.710;100.604;2024-02-26T04:36:22;101321.50;;;47.33;26.18
76095;BME280;64821;13.710;100.604;2024-02-26T04:37:26;101325.06;;;47.41;26.31
76095;BME280;64821;13.710;100.604;2024-02-26T04:38:30;101319.00;;;47.49;26.85
76095;BME280;64821;13.710;100.604;2024-02-26T04:39:35;101316.16;;;47.53;26.09
76095;BME280;64821;13.710;100.604;2024-02-26T04:40:39;101318.09;;;47.60;26.42
76095;BME280;64821;13.710;100.604;2024-02-26T04:41:43;101322.16;;;47.55;26.41
76095;BME280;64821;13.710;100.604;2024-02-26T04:42:47;101310.59;;;47.49;26.26
76095;BME280;64821;13.710;100.604;2024-02-26T04:43:51;101312.50;;;47.56;26.11
76095;BME280;64821;13.710;100.604;2024-02-26T04:44:55;101313.69;;;47.59;26.03
76095;BME280;64821;13.710;100.604;2024-02-26T04:46:00;101312.03;;;47.65;26.42
76095;BME280;64821;13.710;100.604;2024-02-26T04:47:04;101313.16;;;47.71;26.05
76095;BME280;64821;13.710;100.604;2024-02-26T04:48:08;101307.53;;;47.71;26.44
76095;BME280;64821;13.710;100.604;2024-02-26T04:49:12;101290.69;;;47.74;26.04
76095;BME280;64821;13.710;100.604;2024-02-26T04:50:17;101298.34;;;47.74;25.93
76095;BME280;64821;13.710;100.604;2024-02-26T04:51:23;101303.16;;;47.70;26.35
76095;BME280;64821;13.710;100.604;2024-02-26T04:52:27;101294.75;;;47.70;26.01
76095;BME280;64821;13.710;100.604;2024-02-26T04:53:31;101299.72;;;47.52;26.33
76095;BME280;64821;13.710;100.604;2024-02-26T04:54:35;101293.38;;;47.44;26.25
76095;BME280;64821;13.710;100.604;2024-02-26T04:55:40;101292.22;;;47.38;26.69
76095;BME280;64821;13.710;100.604;2024-02-26T04:56:44;101277.84;;;47.29;26.79
76095;BME280;64821;13.710;100.604;2024-02-26T04:57:48;101291.38;;;47.44;26.63
76095;BME280;64821;13.710;100.604;2024-02-26T04:58:52;101294.47;;;47.54;26.05
76095;BME280;64821;13.710;100.604;2024-02-26T04:59:56;101292.41;;;47.61;25.98
76095;BME280;64821;13.710;100.604;2024-02-26T05:01:00;101289.69;;;47.50;25.91
76095;BME280;64821;13.710;100.604;2024-02-26T05:02:04;101287.72;;;47.47;26.11
76095;BME280;64821;13.710;100.604;2024-02-26T05:03:08;101284.94;;;47.44;26.02
76095;BME280;64821;13.710;100.604;2024-02-26T05:04:13;101290.13;;;47.49;26.13
76095;BME280;64821;13.710;100.604;2024-02-26T05:05:17;101288.94;;;47.50;26.03
76095;BME280;64821;13.710;100.604;2024-02-26T05:06:23;101282.44;;;47.57;25.36
76095;BME280;64821;13.710;100.604;2024-02-26T05:07:27;101281.22;;;47.58;26.16
76095;BME280;64821;13.710;100.604;2024-02-26T05:08:31;101249.25;;;47.44;25.74
76095;BME280;64821;13.710;100.604;2024-02-26T05:09:36;101280.91;;;47.48;25.63
76095;BME280;64821;13.710;100.604;2024-02-26T05:10:40;101278.09;;;47.48;26.28
76095;BME280;64821;13.710;100.604;2024-02-26T05:11:44;101281.25;;;47.54;26.22
76095;BME280;64821;13.710;100.604;2024-02-26T05:12:48;101273.19;;;47.60;25.64
76095;BME280;64821;13.710;100.604;2024-02-26T05:13:52;101268.00;;;47.55;25.74
76095;BME280;64821;13.710;100.604;2024-02-26T05:14:56;101278.91;;;47.49;26.24
76095;BME280;64821;13.710;100.604;2024-02-26T05:16:00;101262.09;;;47.45;26.31
76095;BME280;64821;13.710;100.604;2024-02-26T05:17:04;101242.84;;;47.44;25.60
76095;BME280;64821;13.710;100.604;2024-02-26T05:18:08;101253.53;;;47.60;25.73
76095;BME280;64821;13.710;100.604;2024-02-26T05:19:13;101251.06;;;47.65;25.72
76095;BME280;64821;13.710;100.604;2024-02-26T05:20:17;101250.66;;;47.63;25.87
76095;BME280;64821;13.710;100.604;2024-02-26T05:21:23;101245.13;;;47.60;24.87
76095;BME280;64821;13.710;100.604;2024-02-26T05:22:28;101245.56;;;47.51;25.44
76095;BME280;64821;13.710;100.604;2024-02-26T05:23:32;101254.44;;;47.49;25.66
76095;BME280;64821;13.710;100.604;2024-02-26T05:24:38;101236.50;;;47.33;25.04
76095;BME280;64821;13.710;100.604;2024-02-26T05:25:42;101244.94;;;47.36;26.18
76095;BME280;64821;13.710;100.604;2024-02-26T05:26:46;101244.97;;;47.29;26.35
76095;BME280;64821;13.710;100.604;2024-02-26T05:27:50;101232.91;;;47.32;25.94
76095;BME280;64821;13.710;100.604;2024-02-26T05:28:54;101233.69;;;47.33;26.15